createdAt,value
2022-12-27T00:04:56.634Z,6.97
2022-12-27T00:10:28.634Z,6.84
2022-12-27T00:16:00.174Z,6.62
2022-12-27T00:21:36.010Z,6.51
2022-12-27T00:27:07.988Z,6.49
2022-12-27T00:32:39.690Z,6.22
2022-12-27T00:38:11.365Z,6.4
2022-12-27T00:43:42.904Z,6.13
2022-12-27T00:49:14.728Z,5.97
2022-12-27T00:54:46.665Z,6.01
2022-12-27T01:00:18.255Z,5.94
2022-12-27T01:05:49.850Z,6.05
2022-12-27T01:11:21.777Z,5.9
2022-12-27T01:16:53.350Z,5.88
2022-12-27T01:22:29.590Z,5.85
2022-12-27T01:28:01.177Z,5.96
2022-12-27T01:33:33.518Z,5.95
2022-12-27T01:39:04.625Z,5.82
2022-12-27T01:44:36.509Z,6.12
2022-12-27T01:50:08.176Z,5.74
2022-12-27T01:55:39.882Z,5.76
2022-12-27T02:01:11.620Z,5.78
2022-12-27T02:06:43.689Z,5.93
2022-12-27T02:12:15.876Z,6.12
2022-12-27T02:17:46.591Z,5.83
2022-12-27T02:23:24.937Z,5.81
2022-12-27T02:28:56.380Z,5.87
2022-12-27T02:34:28.345Z,6.02
2022-12-27T02:39:59.842Z,6.05
2022-12-27T02:45:31.777Z,5.92
2022-12-27T02:51:03.515Z,5.77
2022-12-27T02:56:35.211Z,5.63
2022-12-27T03:02:06.888Z,5.5
2022-12-27T03:07:38.723Z,5.43
2022-12-27T03:13:10.175Z,5.21
2022-12-27T03:18:42.147Z,5.12
2022-12-27T03:24:18.030Z,4.91
2022-12-27T03:29:49.782Z,4.88
2022-12-27T03:35:21.450Z,5.01
2022-12-27T03:40:53.430Z,4.91
2022-12-27T03:46:24.902Z,5.04
2022-12-27T03:51:56.892Z,4.88
2022-12-27T03:57:28.754Z,4.89
2022-12-27T04:03:00.788Z,4.99
2022-12-27T04:08:31.774Z,4.95
2022-12-27T04:14:03.591Z,4.81
2022-12-27T04:19:35.470Z,4.73
2022-12-27T04:25:11.541Z,4.82
2022-12-27T04:30:43.126Z,4.76
2022-12-27T04:36:14.750Z,4.78
2022-12-27T04:41:47.381Z,4.89
2022-12-27T04:47:18.453Z,4.69
2022-12-27T04:52:50.428Z,4.68
2022-12-27T04:58:21.624Z,4.63
2022-12-27T05:03:53.624Z,4.65
2022-12-27T05:09:25.242Z,4.61
2022-12-27T05:14:56.791Z,4.69
2022-12-27T05:20:28.464Z,4.55
2022-12-27T05:26:06.620Z,4.63
2022-12-27T05:31:38.481Z,4.49
2022-12-27T05:37:10.468Z,4.64
2022-12-27T05:42:42.045Z,4.59
2022-12-27T05:48:13.669Z,4.36
2022-12-27T05:53:45.520Z,4.37
2022-12-27T05:59:16.995Z,4.51
2022-12-27T06:04:48.923Z,4.58
2022-12-27T06:10:20.989Z,4.54
2022-12-27T06:15:52.436Z,4.56
2022-12-27T06:21:24.135Z,4.49
2022-12-27T06:27:00.006Z,4.4
2022-12-27T06:32:31.798Z,4.35
2022-12-27T06:38:03.394Z,4.3
2022-12-27T06:43:35.620Z,4.37
2022-12-27T06:49:07.114Z,4.51
2022-12-27T06:54:39.226Z,4.2
2022-12-27T07:00:10.641Z,4.36
2022-12-27T07:05:41.989Z,4.47
2022-12-27T07:11:13.745Z,4.33
2022-12-27T07:16:45.675Z,4.26
2022-12-27T07:22:17.122Z,4.4
2022-12-27T07:27:53.549Z,4.1
2022-12-27T07:33:25.048Z,4.38
2022-12-27T07:38:57.405Z,4.32
2022-12-27T07:44:28.394Z,4.34
2022-12-27T07:50:00.418Z,4.45
2022-12-27T07:55:31.863Z,4.43
2022-12-27T08:01:03.906Z,4.47
2022-12-27T08:06:35.561Z,4.53
2022-12-27T08:12:07.420Z,4.51
2022-12-27T08:17:39.034Z,4.74
2022-12-27T08:23:10.588Z,4.74
2022-12-27T08:28:46.685Z,4.83
2022-12-27T08:34:18.633Z,5.12
2022-12-27T08:39:50.457Z,5.12
2022-12-27T08:45:22.088Z,5.01
2022-12-27T08:50:53.793Z,5.13
2022-12-27T08:56:25.556Z,5.18
2022-12-27T09:01:57.356Z,5.37
2022-12-27T09:07:28.969Z,5.5
2022-12-27T09:13:00.526Z,5.73
2022-12-27T09:18:32.200Z,5.77
2022-12-27T09:24:04.178Z,5.83
2022-12-27T09:29:43.074Z,5.82
2022-12-27T09:35:11.821Z,5.8
2022-12-27T09:40:43.562Z,5.85
2022-12-27T09:46:15.283Z,5.97
2022-12-27T09:51:47.093Z,6.02
2022-12-27T09:57:20.107Z,6.27
2022-12-27T10:02:50.528Z,6.37
2022-12-27T10:08:22.297Z,6.59
2022-12-27T10:13:53.976Z,6.71
2022-12-27T10:19:25.645Z,6.9
2022-12-27T10:24:57.476Z,6.89
2022-12-27T10:30:33.358Z,6.86
2022-12-27T10:36:05.129Z,6.9
2022-12-27T10:41:37.206Z,7.09
2022-12-27T10:47:10.227Z,7.38
2022-12-27T10:52:40.412Z,7.64
2022-12-27T10:58:12.193Z,7.66
2022-12-27T11:03:44.050Z,7.73
2022-12-27T11:09:15.496Z,7.9
2022-12-27T11:14:47.238Z,8.04
2022-12-27T11:20:18.971Z,8.29
2022-12-27T11:25:50.637Z,8.23
2022-12-27T11:31:27.325Z,8.8
2022-12-27T11:36:58.685Z,8.72
2022-12-27T11:42:30.758Z,8.55
2022-12-27T11:48:02.581Z,8.68
2022-12-27T11:53:33.637Z,8.73
2022-12-27T11:59:05.570Z,8.67
2022-12-27T12:04:37.417Z,8.51
2022-12-27T12:10:10.025Z,9.11
2022-12-27T12:15:40.729Z,8.79
2022-12-27T12:21:12.302Z,9.14
2022-12-27T12:26:44.307Z,9.19
2022-12-27T12:32:22.169Z,9.32
2022-12-27T12:37:53.873Z,9.24
2022-12-27T12:43:26.573Z,9.51
2022-12-27T12:48:57.449Z,8.98
2022-12-27T12:54:29.043Z,9.02
2022-12-27T13:00:00.759Z,9.11
2022-12-27T13:05:32.715Z,9.27
2022-12-27T13:11:04.197Z,9.44
2022-12-27T13:16:35.921Z,8.92
2022-12-27T13:22:07.899Z,9.13
2022-12-27T13:27:39.838Z,9.11
2022-12-27T13:33:15.516Z,8.97
2022-12-27T13:38:47.581Z,9.02
2022-12-27T13:44:19.257Z,9.06
2022-12-27T13:49:50.963Z,9.21
2022-12-27T13:55:22.501Z,9.18
2022-12-27T14:00:54.196Z,9.22
2022-12-27T14:06:25.909Z,9.03
2022-12-27T14:11:57.994Z,9.36
2022-12-27T14:17:29.352Z,9.34
2022-12-27T14:23:01.430Z,9.23
2022-12-27T14:28:32.848Z,9.14
2022-12-27T14:34:08.977Z,9.07
2022-12-27T14:39:40.836Z,8.87
2022-12-27T14:45:12.571Z,8.91
2022-12-27T14:50:44.126Z,8.94
2022-12-27T14:56:15.829Z,8.69
2022-12-27T15:01:47.608Z,8.8
2022-12-27T15:07:19.548Z,8.58
2022-12-27T15:12:51.192Z,8.48
2022-12-27T15:18:23.226Z,8.68
2022-12-27T15:23:54.686Z,8.66
2022-12-27T15:29:26.305Z,8.22
2022-12-27T15:35:04.415Z,8.51
2022-12-27T15:40:36.025Z,8.31
2022-12-27T15:46:07.787Z,8.08
2022-12-27T15:51:39.575Z,8.07
2022-12-27T15:57:11.382Z,8.13
2022-12-27T16:02:43.045Z,8.05
2022-12-27T16:08:14.685Z,8.13
2022-12-27T16:13:46.407Z,8.09
2022-12-27T16:19:18.080Z,8.1
2022-12-27T16:24:49.804Z,7.92
2022-12-27T16:30:21.710Z,7.93
2022-12-27T16:35:59.845Z,7.92
2022-12-27T16:41:31.427Z,7.68
2022-12-27T16:47:03.234Z,7.51
2022-12-27T16:52:34.846Z,7.46
2022-12-27T16:58:06.529Z,7.63
2022-12-27T17:03:38.692Z,7.47
2022-12-27T17:09:10.317Z,7.59
2022-12-27T17:14:41.878Z,7.59
2022-12-27T17:20:13.601Z,7.5
2022-12-27T17:25:45.170Z,7.34
2022-12-27T17:31:16.932Z,7.33
2022-12-27T17:36:53.439Z,7.19
2022-12-27T17:42:24.944Z,7.1
2022-12-27T17:47:56.593Z,7.04
2022-12-27T17:53:28.169Z,6.94
2022-12-27T17:59:00.110Z,6.9
2022-12-27T18:04:31.603Z,6.79
2022-12-27T18:10:03.346Z,6.73
2022-12-27T18:15:35.268Z,6.64
2022-12-27T18:21:07.115Z,6.52
2022-12-27T18:26:38.772Z,6.45
2022-12-27T18:32:10.490Z,6.45
2022-12-27T18:37:48.736Z,6.44
2022-12-27T18:43:20.125Z,6.29
2022-12-27T18:48:51.892Z,6.29
2022-12-27T18:54:23.769Z,6.17
2022-12-27T18:59:55.592Z,6.15
2022-12-27T19:05:26.999Z,6.02
2022-12-27T19:10:58.739Z,6.04
2022-12-27T19:16:30.540Z,6.0
2022-12-27T19:22:02.171Z,5.89
2022-12-27T19:27:33.962Z,5.94
2022-12-27T19:33:05.612Z,5.84
2022-12-27T19:38:45.954Z,5.84
2022-12-27T19:44:13.628Z,5.77
2022-12-27T19:49:45.319Z,5.64
2022-12-27T19:55:16.909Z,5.58
2022-12-27T20:00:49.456Z,5.51
2022-12-27T20:06:24.012Z,5.39
2022-12-27T20:11:52.298Z,5.33
2022-12-27T20:17:23.813Z,5.23
2022-12-27T20:22:55.760Z,5.11
2022-12-27T20:28:27.270Z,4.99
2022-12-27T20:33:59.222Z,4.99
2022-12-27T20:39:37.136Z,4.98
2022-12-27T20:45:08.861Z,4.95
2022-12-27T20:50:40.829Z,4.91
2022-12-27T20:56:12.598Z,4.84
2022-12-27T21:01:44.391Z,4.81
2022-12-27T21:07:15.905Z,4.81
2022-12-27T21:12:47.611Z,4.71
2022-12-27T21:18:19.557Z,4.63
2022-12-27T21:23:51.225Z,4.72
2022-12-27T21:29:22.773Z,4.76
2022-12-27T21:34:54.499Z,4.74
2022-12-27T21:40:30.812Z,4.62
2022-12-27T21:46:02.484Z,4.6
2022-12-27T21:51:34.080Z,4.51
2022-12-27T21:57:05.827Z,4.57
2022-12-27T22:02:37.660Z,4.58
2022-12-27T22:08:09.236Z,4.55
2022-12-27T22:13:41.050Z,4.6
2022-12-27T22:19:12.646Z,4.72
2022-12-27T22:24:44.480Z,4.68
2022-12-27T22:30:16.095Z,4.69
2022-12-27T22:35:47.943Z,4.65
2022-12-27T22:41:23.907Z,4.69
2022-12-27T22:47:24.842Z,4.56
2022-12-27T22:52:27.456Z,4.44
2022-12-27T22:57:59.250Z,4.42
2022-12-27T23:03:30.827Z,4.64
2022-12-27T23:09:02.608Z,4.67
2022-12-27T23:14:34.785Z,4.58
2022-12-27T23:20:06.147Z,4.48
2022-12-27T23:25:37.749Z,4.53
2022-12-27T23:31:09.572Z,4.79
2022-12-27T23:36:41.181Z,4.83
2022-12-27T23:42:17.309Z,4.84
2022-12-27T23:47:49.423Z,4.94
2022-12-27T23:53:21.071Z,5.03
2022-12-27T23:58:52.498Z,5.0
